UAE34E OMDB-LGAV
Flight info
| Callsign | UAE34E |
|---|---|
| Flight time | N/A |
| Altitude | 30000 |
| Route | ANVIX R401 GIDIS G783 VAVIM DCT ESROM M318 GOLGU M550 RIBOT DCT MIGMA DCT SITUK M321 KSA T503 TAMRO/N0509F320 T503 OVANO L768 FIRAS R655 LEBOR UR655 BALMA DCT EVENO UM601 RDS UL995 USINI DCT AKINA UL995 PIDAX/N0452F240 L995 VARIX |
| Aircraft | B77W/H-SDE1E2E3FGHIJ2J3J4J5M1RWXY/LB1D1 |
Departure
| Time | 2026-04-25 12:56 |
|---|---|
| Airport | Dubai International Airport (OMDB) |
Arrival
| Time | N/A |
|---|---|
| Airport | Athens Eleftherios Venizelos International Airport (LGAV) |
| Time | Latitude | Longitude | Altitude | Speed | Heading |
|---|---|---|---|---|---|
| 2026-04-25 12:17 | 25.24312 | 55.37444 | 46 ft | 0 kts | 212° |
| 2026-04-25 12:42 | 25.24319 | 55.37449 | 46 ft | 2 kts | 212° |
| 2026-04-25 12:42 | 25.24330 | 55.37457 | 46 ft | 0 kts | 212° |
| 2026-04-25 12:43 | 25.24340 | 55.37463 | 46 ft | 2 kts | 206° |
| 2026-04-25 12:43 | 25.24354 | 55.37469 | 46 ft | 2 kts | 190° |
| 2026-04-25 12:43 | 25.24383 | 55.37469 | 46 ft | 2 kts | 165° |
| 2026-04-25 12:44 | 25.24397 | 55.37463 | 46 ft | 2 kts | 152° |
| 2026-04-25 12:44 | 25.24410 | 55.37455 | 46 ft | 2 kts | 139° |
| 2026-04-25 12:44 | 25.24425 | 55.37436 | 46 ft | 0 kts | 121° |
| 2026-04-25 12:45 | 25.24425 | 55.37435 | 46 ft | 0 kts | 121° |
| 2026-04-25 12:51 | 25.24425 | 55.37436 | 46 ft | 0 kts | 121° |
| 2026-04-25 12:51 | 25.24410 | 55.37463 | 46 ft | 6 kts | 121° |
| 2026-04-25 12:52 | 25.24375 | 55.37524 | 46 ft | 11 kts | 122° |
| 2026-04-25 12:52 | 25.24325 | 55.37618 | 46 ft | 16 kts | 121° |
| 2026-04-25 12:52 | 25.24271 | 55.37712 | 46 ft | 10 kts | 117° |
| 2026-04-25 12:52 | 25.24284 | 55.37777 | 46 ft | 8 kts | 38° |
| 2026-04-25 12:53 | 25.24328 | 55.37812 | 46 ft | 5 kts | 33° |
| 2026-04-25 12:53 | 25.24330 | 55.37814 | 46 ft | 0 kts | 33° |
| 2026-04-25 12:53 | 25.24343 | 55.37823 | 46 ft | 2 kts | 33° |
| 2026-04-25 12:54 | 25.24361 | 55.37836 | 46 ft | 6 kts | 33° |
| 2026-04-25 12:54 | 25.24418 | 55.37878 | 46 ft | 12 kts | 34° |
| 2026-04-25 12:54 | 25.24495 | 55.37936 | 46 ft | 13 kts | 34° |
| 2026-04-25 12:54 | 25.24567 | 55.37991 | 46 ft | 13 kts | 34° |
| 2026-04-25 12:55 | 25.24665 | 55.38064 | 46 ft | 18 kts | 33° |
| 2026-04-25 12:55 | 25.24728 | 55.38100 | 46 ft | 13 kts | 8° |
| 2026-04-25 12:55 | 25.24836 | 55.37971 | 46 ft | 38 kts | 301° |
| 2026-04-25 12:55 | 25.25107 | 55.37484 | 46 ft | 108 kts | 301° |
| 2026-04-25 12:56 | 25.25613 | 55.36572 | 47 ft | 169 kts | 301° |
| 2026-04-25 12:56 | 25.26271 | 55.35358 | 415 ft | 193 kts | 300° |
| 2026-04-25 12:56 | 25.26945 | 55.34067 | 1291 ft | 195 kts | 302° |
| 2026-04-25 12:56 | 25.27628 | 55.32859 | 2103 ft | 189 kts | 302° |
| 2026-04-25 12:57 | 25.28358 | 55.31580 | 2440 ft | 210 kts | 302° |
| 2026-04-25 12:57 | 25.29018 | 55.30063 | 2914 ft | 226 kts | 283° |
| 2026-04-25 12:57 | 25.29019 | 55.28340 | 3596 ft | 231 kts | 255° |
| 2026-04-25 12:57 | 25.28419 | 55.26712 | 4394 ft | 233 kts | 246° |
| 2026-04-25 12:58 | 25.27705 | 55.25085 | 5131 ft | 237 kts | 246° |
| 2026-04-25 12:58 | 25.26997 | 55.23445 | 5897 ft | 239 kts | 246° |
| 2026-04-25 12:58 | 25.26300 | 55.21809 | 6657 ft | 241 kts | 246° |
| 2026-04-25 12:58 | 25.25590 | 55.20135 | 7402 ft | 243 kts | 246° |
| 2026-04-25 12:59 | 25.24779 | 55.18483 | 8185 ft | 245 kts | 231° |
| 2026-04-25 12:59 | 25.23496 | 55.17280 | 8873 ft | 248 kts | 210° |
| 2026-04-25 12:59 | 25.21959 | 55.16395 | 9515 ft | 253 kts | 207° |
| 2026-04-25 12:59 | 25.20324 | 55.15510 | 9929 ft | 270 kts | 207° |
| 2026-04-25 13:00 | 25.18570 | 55.14562 | 10366 ft | 287 kts | 207° |
| 2026-04-25 13:00 | 25.17975 | 55.14239 | 10588 ft | 289 kts | 207° |
| 2026-04-25 13:00 | 25.14986 | 55.12603 | 11898 ft | 292 kts | 207° |
| 2026-04-25 13:00 | 25.13158 | 55.11586 | 12617 ft | 297 kts | 207° |
| 2026-04-25 13:01 | 25.11298 | 55.10541 | 13333 ft | 301 kts | 207° |
| 2026-04-25 13:01 | 25.09393 | 55.09469 | 13752 ft | 316 kts | 207° |
| 2026-04-25 13:01 | 25.07364 | 55.08331 | 14180 ft | 331 kts | 207° |
| 2026-04-25 13:01 | 25.05290 | 55.07170 | 14837 ft | 340 kts | 208° |
| 2026-04-25 13:02 | 25.03210 | 55.05867 | 15304 ft | 354 kts | 211° |
| 2026-04-25 13:02 | 25.01030 | 55.04451 | 15693 ft | 368 kts | 211° |
| 2026-04-25 13:02 | 24.98785 | 55.02990 | 16018 ft | 382 kts | 211° |
| 2026-04-25 13:02 | 24.96450 | 55.01471 | 16459 ft | 395 kts | 211° |
| 2026-04-25 13:03 | 24.94051 | 54.99910 | 17059 ft | 403 kts | 211° |
| 2026-04-25 13:03 | 24.91635 | 54.98340 | 17790 ft | 406 kts | 212° |
| 2026-04-25 13:03 | 24.89198 | 54.96756 | 18462 ft | 409 kts | 212° |
| 2026-04-25 13:03 | 24.86748 | 54.95165 | 19094 ft | 413 kts | 212° |
| 2026-04-25 13:04 | 24.84238 | 54.93535 | 19711 ft | 417 kts | 212° |
| 2026-04-25 13:04 | 24.81730 | 54.91907 | 20374 ft | 421 kts | 212° |
| 2026-04-25 13:04 | 24.79188 | 54.90258 | 21041 ft | 423 kts | 212° |
| 2026-04-25 13:04 | 24.76633 | 54.88602 | 21660 ft | 426 kts | 213° |
| 2026-04-25 13:05 | 24.74091 | 54.86955 | 22247 ft | 429 kts | 213° |
| 2026-04-25 13:05 | 24.71493 | 54.85272 | 22761 ft | 434 kts | 213° |
| 2026-04-25 13:05 | 24.68899 | 54.83591 | 23311 ft | 437 kts | 213° |
| 2026-04-25 13:05 | 24.66258 | 54.81882 | 23896 ft | 440 kts | 213° |
| 2026-04-25 13:06 | 24.63621 | 54.80176 | 24434 ft | 443 kts | 213° |
| 2026-04-25 13:06 | 24.60938 | 54.78441 | 24892 ft | 448 kts | 213° |
| 2026-04-25 13:06 | 24.58231 | 54.76691 | 25387 ft | 452 kts | 213° |
| 2026-04-25 13:06 | 24.55547 | 54.74956 | 25944 ft | 454 kts | 213° |
| 2026-04-25 13:07 | 24.52802 | 54.73184 | 26460 ft | 457 kts | 213° |
| 2026-04-25 13:07 | 24.50033 | 54.71397 | 26948 ft | 461 kts | 213° |
| 2026-04-25 13:07 | 24.47263 | 54.69609 | 27445 ft | 464 kts | 213° |
| 2026-04-25 13:07 | 24.44479 | 54.67814 | 27932 ft | 467 kts | 213° |
| 2026-04-25 13:08 | 24.41655 | 54.65993 | 28474 ft | 470 kts | 213° |
| 2026-04-25 13:08 | 24.38833 | 54.64175 | 29000 ft | 472 kts | 213° |
| 2026-04-25 13:08 | 24.35984 | 54.62339 | 29528 ft | 474 kts | 213° |
| 2026-04-25 13:08 | 24.33165 | 54.60524 | 29867 ft | 476 kts | 213° |
| 2026-04-25 13:09 | 24.27469 | 54.56836 | 29875 ft | 470 kts | 216° |
| 2026-04-25 13:09 | 24.22555 | 54.52206 | 29876 ft | 468 kts | 231° |
| 2026-04-25 13:10 | 24.19059 | 54.46262 | 29876 ft | 462 kts | 246° |
| 2026-04-25 13:10 | 24.17670 | 54.43084 | 29921 ft | 473 kts | 245° |
| 2026-04-25 13:10 | 24.16179 | 54.39811 | 30321 ft | 478 kts | 244° |
| 2026-04-25 13:11 | 24.14664 | 54.36607 | 31103 ft | 473 kts | 244° |
| 2026-04-25 13:11 | 24.13136 | 54.33445 | 31756 ft | 468 kts | 243° |
| 2026-04-25 13:11 | 24.11577 | 54.30274 | 31885 ft | 467 kts | 243° |
| 2026-04-25 13:11 | 24.10047 | 54.27206 | 31891 ft | 463 kts | 243° |
| 2026-04-25 13:12 | 24.06951 | 54.21073 | 31895 ft | 460 kts | 243° |
| 2026-04-25 13:12 | 24.04315 | 54.15908 | 31891 ft | 463 kts | 242° |
| 2026-04-25 13:13 | 24.00664 | 54.08804 | 31892 ft | 461 kts | 243° |
| 2026-04-25 13:13 | 23.97481 | 54.02697 | 31892 ft | 462 kts | 242° |
| 2026-04-25 13:14 | 23.94265 | 53.96612 | 31892 ft | 463 kts | 242° |
| 2026-04-25 13:14 | 23.91037 | 53.90512 | 31890 ft | 461 kts | 242° |
| 2026-04-25 13:15 | 23.87820 | 53.84439 | 31892 ft | 463 kts | 242° |
| 2026-04-25 13:15 | 23.84607 | 53.78383 | 31894 ft | 460 kts | 242° |
| 2026-04-25 13:16 | 23.81389 | 53.72324 | 31904 ft | 459 kts | 242° |
| 2026-04-25 13:16 | 23.78180 | 53.66288 | 31901 ft | 461 kts | 242° |
| 2026-04-25 13:17 | 23.74965 | 53.60249 | 31907 ft | 461 kts | 242° |
| 2026-04-25 13:17 | 23.71738 | 53.54197 | 31912 ft | 461 kts | 242° |
| 2026-04-25 13:18 | 23.68536 | 53.48173 | 31908 ft | 460 kts | 242° |
| 2026-04-25 13:18 | 23.65333 | 53.42125 | 31910 ft | 459 kts | 242° |
| 2026-04-25 13:19 | 23.62136 | 53.36096 | 31911 ft | 461 kts | 242° |
| 2026-04-25 13:19 | 23.59957 | 53.31991 | 31921 ft | 472 kts | 242° |
| 2026-04-25 13:20 | 23.57163 | 53.26732 | 31920 ft | 483 kts | 241° |
| 2026-04-25 13:20 | 23.55478 | 53.23565 | 31919 ft | 483 kts | 242° |
| 2026-04-25 13:20 | 23.52110 | 53.17241 | 31916 ft | 483 kts | 241° |
| 2026-04-25 13:21 | 23.48746 | 53.10933 | 31912 ft | 482 kts | 241° |
| 2026-04-25 13:21 | 23.45367 | 53.04606 | 31912 ft | 482 kts | 241° |
| 2026-04-25 13:22 | 23.41996 | 52.98298 | 31915 ft | 483 kts | 241° |
| 2026-04-25 13:23 | 23.37040 | 52.88782 | 31910 ft | 485 kts | 242° |
| 2026-04-25 13:23 | 23.33757 | 52.82368 | 31906 ft | 483 kts | 242° |
| 2026-04-25 13:24 | 23.30480 | 52.75982 | 31909 ft | 483 kts | 242° |
| 2026-04-25 13:24 | 23.27209 | 52.69619 | 31901 ft | 485 kts | 242° |
| 2026-04-25 13:25 | 23.23911 | 52.63218 | 31897 ft | 485 kts | 242° |
| 2026-04-25 13:25 | 23.20636 | 52.56869 | 31898 ft | 482 kts | 242° |
| 2026-04-25 13:26 | 23.17602 | 52.50373 | 31894 ft | 484 kts | 251° |
| 2026-04-25 13:26 | 23.15385 | 52.43457 | 31890 ft | 484 kts | 252° |
| 2026-04-25 13:27 | 23.13212 | 52.36579 | 31883 ft | 484 kts | 252° |
| 2026-04-25 13:27 | 23.11016 | 52.29646 | 31898 ft | 484 kts | 251° |
| 2026-04-25 13:28 | 23.08824 | 52.22740 | 31898 ft | 483 kts | 251° |
| 2026-04-25 13:28 | 23.06632 | 52.15855 | 31902 ft | 483 kts | 251° |
| 2026-04-25 13:29 | 23.04440 | 52.08976 | 31902 ft | 485 kts | 251° |
| 2026-04-25 13:29 | 23.02243 | 52.02099 | 31900 ft | 484 kts | 252° |
| 2026-04-25 13:30 | 22.98945 | 51.91797 | 31893 ft | 481 kts | 251° |
| 2026-04-25 13:31 | 22.95645 | 51.81515 | 31892 ft | 482 kts | 252° |
| 2026-04-25 13:31 | 22.93446 | 51.74675 | 31883 ft | 482 kts | 252° |
| 2026-04-25 13:32 | 22.91225 | 51.67781 | 31875 ft | 484 kts | 252° |
| 2026-04-25 13:32 | 22.89004 | 51.60897 | 31882 ft | 483 kts | 252° |
| 2026-04-25 13:33 | 22.86788 | 51.54041 | 31880 ft | 481 kts | 252° |
| 2026-04-25 13:33 | 22.84885 | 51.47139 | 31884 ft | 479 kts | 261° |
| 2026-04-25 13:34 | 22.84679 | 51.39920 | 31883 ft | 479 kts | 273° |
| 2026-04-25 13:34 | 22.85129 | 51.32778 | 31896 ft | 476 kts | 274° |
| 2026-04-25 13:35 | 22.85581 | 51.25575 | 31894 ft | 478 kts | 273° |
| 2026-04-25 13:35 | 22.86284 | 51.14160 | 31886 ft | 477 kts | 273° |
| 2026-04-25 13:36 | 22.87145 | 50.99900 | 31893 ft | 477 kts | 274° |
| 2026-04-25 13:36 | 22.87993 | 50.85619 | 31904 ft | 477 kts | 274° |
| 2026-04-25 13:37 | 22.88830 | 50.71299 | 31901 ft | 477 kts | 274° |
| 2026-04-25 13:37 | 22.89651 | 50.57031 | 31904 ft | 475 kts | 274° |
| 2026-04-25 13:38 | 22.90462 | 50.42710 | 31893 ft | 475 kts | 274° |
| 2026-04-25 13:38 | 22.91252 | 50.28518 | 31915 ft | 476 kts | 273° |
| 2026-04-25 13:39 | 22.92038 | 50.14189 | 31904 ft | 477 kts | 273° |
| 2026-04-25 13:39 | 22.92809 | 49.99885 | 31916 ft | 477 kts | 273° |
| 2026-04-25 13:40 | 22.93569 | 49.85555 | 31906 ft | 475 kts | 273° |
| 2026-04-25 13:40 | 22.94312 | 49.71293 | 31918 ft | 474 kts | 274° |
| 2026-04-25 13:41 | 22.95037 | 49.57131 | 31903 ft | 474 kts | 274° |
| 2026-04-25 13:41 | 22.95749 | 49.42987 | 31901 ft | 470 kts | 274° |
| 2026-04-25 13:42 | 22.96445 | 49.28915 | 31919 ft | 469 kts | 273° |
| 2026-04-25 13:42 | 22.97126 | 49.14881 | 31918 ft | 468 kts | 273° |
| 2026-04-25 13:43 | 22.97795 | 49.00831 | 31928 ft | 469 kts | 274° |
| 2026-04-25 13:43 | 22.98451 | 48.86803 | 31921 ft | 464 kts | 274° |
| 2026-04-25 13:44 | 22.99093 | 48.72830 | 31947 ft | 465 kts | 274° |
| 2026-04-25 13:44 | 22.99720 | 48.58888 | 31930 ft | 464 kts | 274° |
| 2026-04-25 13:45 | 23.00334 | 48.44973 | 31944 ft | 463 kts | 274° |
| 2026-04-25 13:45 | 23.00937 | 48.31043 | 31955 ft | 463 kts | 274° |
| 2026-04-25 13:46 | 23.01521 | 48.17271 | 31960 ft | 461 kts | 274° |
| 2026-04-25 13:46 | 23.02095 | 48.03428 | 31964 ft | 460 kts | 274° |
| 2026-04-25 13:47 | 23.02944 | 47.89605 | 31979 ft | 458 kts | 282° |
| 2026-04-25 13:47 | 23.05080 | 47.83143 | 31977 ft | 459 kts | 296° |
| 2026-04-25 13:47 | 23.08843 | 47.77520 | 31981 ft | 463 kts | 311° |
| 2026-04-25 13:47 | 23.13873 | 47.73281 | 31989 ft | 473 kts | 324° |
| 2026-04-25 13:48 | 23.19434 | 47.69735 | 31998 ft | 472 kts | 324° |
| 2026-04-25 13:48 | 23.30693 | 47.62322 | 32001 ft | 472 kts | 323° |
| 2026-04-25 13:49 | 23.41829 | 47.54830 | 32006 ft | 471 kts | 323° |
| 2026-04-25 13:49 | 23.52981 | 47.47274 | 32006 ft | 472 kts | 323° |
| 2026-04-25 13:50 | 23.64100 | 47.39718 | 32002 ft | 472 kts | 323° |
| 2026-04-25 13:50 | 23.69680 | 47.35919 | 32583 ft | 472 kts | 323° |
| 2026-04-25 13:50 | 23.75099 | 47.32230 | 33931 ft | 458 kts | 322° |
| 2026-04-25 13:51 | 23.85859 | 47.24882 | 34011 ft | 457 kts | 322° |
| 2026-04-25 13:51 | 23.96482 | 47.17616 | 34004 ft | 455 kts | 322° |
| 2026-04-25 13:52 | 24.07157 | 47.10298 | 34005 ft | 455 kts | 322° |
| 2026-04-25 13:52 | 24.18532 | 47.04063 | 34007 ft | 463 kts | 329° |
| 2026-04-25 13:53 | 24.30425 | 46.98546 | 34014 ft | 464 kts | 330° |
| 2026-04-25 13:53 | 24.42303 | 46.93013 | 34024 ft | 465 kts | 329° |
| 2026-04-25 13:54 | 24.54150 | 46.87481 | 34027 ft | 467 kts | 329° |
| 2026-04-25 13:54 | 24.66063 | 46.81907 | 34029 ft | 467 kts | 329° |
| 2026-04-25 13:55 | 24.77948 | 46.76333 | 34024 ft | 467 kts | 329° |
| 2026-04-25 13:55 | 24.89882 | 46.70725 | 34041 ft | 469 kts | 329° |
| 2026-04-25 13:56 | 25.01024 | 46.63811 | 34036 ft | 452 kts | 312° |
| 2026-04-25 13:56 | 25.10207 | 46.54465 | 34027 ft | 449 kts | 311° |
| 2026-04-25 13:57 | 25.19263 | 46.45203 | 34024 ft | 449 kts | 311° |
| 2026-04-25 13:57 | 25.28439 | 46.35799 | 34022 ft | 448 kts | 311° |
| 2026-04-25 13:58 | 25.37495 | 46.26498 | 34044 ft | 448 kts | 311° |
| 2026-04-25 13:58 | 25.46608 | 46.17116 | 34041 ft | 449 kts | 311° |
| 2026-04-25 13:59 | 25.55782 | 46.07651 | 34031 ft | 452 kts | 310° |
| 2026-04-25 13:59 | 25.64952 | 45.98170 | 34036 ft | 451 kts | 311° |
| 2026-04-25 14:00 | 25.74110 | 45.88680 | 34037 ft | 452 kts | 310° |
| 2026-04-25 14:00 | 25.83319 | 45.79115 | 34058 ft | 456 kts | 310° |
| 2026-04-25 14:01 | 25.92461 | 45.69598 | 34047 ft | 454 kts | 310° |
| 2026-04-25 14:01 | 26.01675 | 45.59983 | 34027 ft | 456 kts | 310° |
| 2026-04-25 14:02 | 26.10852 | 45.50386 | 34019 ft | 455 kts | 310° |
| 2026-04-25 14:02 | 26.19982 | 45.40815 | 34032 ft | 455 kts | 310° |
| 2026-04-25 14:03 | 26.29148 | 45.31190 | 34045 ft | 456 kts | 309° |
| 2026-04-25 14:03 | 26.38350 | 45.21536 | 34045 ft | 459 kts | 309° |
| 2026-04-25 14:04 | 26.47417 | 45.12014 | 34039 ft | 453 kts | 309° |
| 2026-04-25 14:04 | 26.56691 | 45.02246 | 34036 ft | 459 kts | 310° |
| 2026-04-25 14:05 | 26.65879 | 44.92553 | 34020 ft | 459 kts | 309° |
| 2026-04-25 14:05 | 26.75184 | 44.82715 | 34028 ft | 463 kts | 309° |
| 2026-04-25 14:06 | 26.84514 | 44.72814 | 34013 ft | 463 kts | 309° |
| 2026-04-25 14:06 | 26.93750 | 44.62981 | 34013 ft | 466 kts | 310° |
| 2026-04-25 14:07 | 27.03090 | 44.53012 | 34003 ft | 467 kts | 309° |
| 2026-04-25 14:07 | 27.12460 | 44.42976 | 33999 ft | 464 kts | 309° |
| 2026-04-25 14:08 | 27.21774 | 44.32983 | 34012 ft | 469 kts | 308° |
| 2026-04-25 14:08 | 27.31078 | 44.22991 | 34014 ft | 467 kts | 309° |
| 2026-04-25 14:09 | 27.40428 | 44.12925 | 34017 ft | 469 kts | 308° |
| 2026-04-25 14:09 | 27.49826 | 44.02781 | 34022 ft | 472 kts | 308° |
| 2026-04-25 14:10 | 27.59313 | 43.92515 | 34014 ft | 474 kts | 308° |
| 2026-04-25 14:10 | 27.68806 | 43.82214 | 34014 ft | 479 kts | 308° |
| 2026-04-25 14:11 | 27.78293 | 43.71900 | 34001 ft | 476 kts | 308° |
| 2026-04-25 14:11 | 27.87774 | 43.61314 | 33992 ft | 477 kts | 305° |
| 2026-04-25 14:12 | 27.96773 | 43.50391 | 33987 ft | 478 kts | 306° |